10:27
Airports
History
Links
Donate
Help keep this website running!
PayPal
Bitcoin
This page is community maintained. The information is intended for PC simulator navigation or reference.
Always use approved charts for navigation.
NV13
Bailey Ranch
Bailey Ranch (NV13)
Carson City, Nevada, United States (89704)
4
Lat/Lng:39° 16' 58" N / 119° 49' 42" W
39.282778 / -119.828333
Elevation:5060'ft / 1542mMSL
ID / ICAO:NV13
Runways:1
Longest:07-25
Grass 789m / 2,587ft
Nearby Weather09:55 GMT 2017-09-24
Nearby weather at KRNO, Reno/tahoe Intl located 15.3 nautical miles from NV13
Altimeter: 30.08
Visibility: 10.0 statute miles
Wind: 3 knots (from 290°)
Temp: 4°c / 39°f
Humidity: 60.2%

METAR: KRNO 240955Z 29003KT 10SM CLR 04/M03 A3008 RMK AO2 SLP166 T00441033

(Powered by phpweather)
Nearby VORs <50NM
Nearby NDBs
Runway 07 / 25
Dimensions:788.6 x 15.2m 2587' x 50'ft
Surface:Grass
Runway 07 [A]Runway 25 [B]
Heading:086°TH 266°TH
Lat:
Lng:
39° 16' 57.1"N
119° 49' 58.54"W
39° 16' 58.9"N
119° 49' 25.46"W
User Notes and Comments
39° 16' 58" N / 119° 49' 42" W
Distance To
Airport ID:
Nearby Airports
(U) Carson 8.1 NM
KCXP SE 140°
4 Parker Carson 9.6 NM
2Q5 SE 125°
(U) Dayton Valley Airpark 14.9 NM
A34 E 101°
(C) Reno/tahoe Intl 15.3 NM
KRNO ( WX ) NNE 12°
(U) Truckee-tahoe 16.8 NM
KTRK ( WX ) W 278°
(U) Minden-tahoe 19.9 NM
KMEV SSE 168°
(C) Reno/stead 26.8 NM
KRTS N 354°
VFR Chart
Flight Planning at SkyVector.com